Terminal Aerodrome Forecast
Issued by NWS

Home | Current Version | Previous Version | Text Only | Print | Product List | Glossary On
Versions: 1 2 3 4 5 6 7 8 9 10 11 12 13 14 15 16 17
000
FTUS42 KTBW 282330
TAFPIE
TAF
KPIE 282330Z 2900/2924 09007KT P6SM VCTS SCT025CB BKN100
      TEMPO 2901/2903 4SM TSRA SCT025CB
     FM290300 10005KT P6SM SCT130 BKN250
     FM291400 12007KT P6SM SCT030 BKN250
     FM291700 07006KT P6SM VCTS SCT040CB BKN250
     FM292000 31007KT P6SM VCTS SCT030CB BKN250=

USA.gov is the U.S. government's official web portal to all federal, state and local government web resources and services.